Time;durP1;ratioP1;P1;durP2;ratioP2;P2;SDS_P1;SDS_P2;PMS_P1;PMS_P2;Temp;Humidity;BMP_temperature;BMP_pressure;BME280_temperature;BME280_humidity;BME280_pressure;Samples;Min_cycle;Max_cycle;Signal;HPM_P1;HPM_P2
2021/03/23 00:02:10;;;;;;;345.43;111.70;;;;;;;2.88;58.21;99111.41;5034160;28;20027;-66
2021/03/23 00:04:36;;;;;;;343.67;105.95;;;;;;;2.84;58.59;99116.41;5031035;28;20368;-67
2021/03/23 00:07:01;;;;;;;358.30;108.10;;;;;;;2.82;58.82;99113.81;5034972;28;20080;-68
2021/03/23 00:09:26;;;;;;;341.13;103.43;;;;;;;2.84;59.26;99119.78;5031814;28;20619;-67
2021/03/23 00:11:52;;;;;;;354.70;110.87;;;;;;;2.87;58.98;99117.31;5033229;28;20175;-66
2021/03/23 00:14:17;;;;;;;337.93;102.10;;;;;;;2.89;58.87;99119.84;5035280;28;20076;-69
2021/03/23 00:16:45;;;;;;;354.07;107.67;;;;;;;3.00;58.61;99124.31;5031403;28;20379;-67
2021/03/23 00:19:12;;;;;;;348.48;107.15;;;;;;;2.96;58.92;99122.53;5032856;28;20287;-67
2021/03/23 00:21:38;;;;;;;342.02;104.88;;;;;;;2.82;59.02;99107.91;5026937;28;20331;-67
2021/03/23 00:24:04;;;;;;;320.03;100.10;;;;;;;2.79;59.26;99128.09;5035031;28;20032;-67
2021/03/23 00:26:29;;;;;;;353.43;103.30;;;;;;;2.81;59.15;99116.31;5030721;28;20284;-67
2021/03/23 00:28:56;;;;;;;340.40;105.33;;;;;;;2.82;58.95;99115.50;5035003;28;20030;-67
2021/03/23 00:31:32;;;;;;;335.57;104.13;;;;;;;2.87;59.13;99114.78;5030722;28;20037;-67
2021/03/23 00:34:00;;;;;;;317.85;107.20;;;;;;;2.85;59.32;99113.00;5033781;28;20630;-68
2021/03/23 00:36:31;;;;;;;334.67;99.97;;;;;;;2.89;59.41;99120.69;5029808;28;20087;-68
2021/03/23 00:38:57;;;;;;;345.52;110.68;;;;;;;2.79;59.47;99118.84;5033828;28;20306;-68
2021/03/23 00:41:22;;;;;;;327.90;95.77;;;;;;;2.82;59.02;99112.97;5032189;28;20113;-67
2021/03/23 00:43:48;;;;;;;357.97;106.87;;;;;;;2.88;59.12;99118.16;5033382;28;20604;-68
2021/03/23 00:46:14;;;;;;;352.40;108.87;;;;;;;2.86;59.71;99129.91;5031821;28;20104;-68
2021/03/23 00:48:39;;;;;;;360.53;107.17;;;;;;;2.82;59.55;99133.22;5030414;28;20061;-67
2021/03/23 00:51:04;;;;;;;353.23;107.20;;;;;;;2.75;59.56;99128.06;5035772;28;20068;-67
2021/03/23 00:53:30;;;;;;;337.07;103.47;;;;;;;2.85;59.25;99129.06;5031711;28;20037;-66
2021/03/23 00:55:58;;;;;;;338.27;103.17;;;;;;;2.86;59.59;99133.31;5034117;28;20112;-68
2021/03/23 00:58:24;;;;;;;350.80;99.90;;;;;;;2.75;60.11;99137.31;5030551;28;20029;-68
2021/03/23 01:00:49;;;;;;;345.67;105.77;;;;;;;2.75;60.35;99130.59;5032621;28;20022;-67
2021/03/23 01:03:14;;;;;;;345.03;101.87;;;;;;;2.79;60.48;99138.22;5032800;28;20367;-68
2021/03/23 01:05:42;;;;;;;351.63;102.70;;;;;;;2.81;60.15;99128.97;5035824;28;20036;-69
2021/03/23 01:08:08;;;;;;;339.48;102.30;;;;;;;2.75;60.47;99132.25;5032003;28;20030;-68
2021/03/23 01:10:34;;;;;;;337.00;99.13;;;;;;;2.70;60.72;99127.09;5035408;28;20120;-68
2021/03/23 01:13:00;;;;;;;326.08;100.75;;;;;;;2.63;61.20;99135.38;5030272;28;20321;-69
2021/03/23 01:15:30;;;;;;;338.80;108.32;;;;;;;2.62;60.79;99132.81;5033863;28;20371;-68
2021/03/23 01:17:55;;;;;;;337.30;103.43;;;;;;;2.52;60.90;99124.19;5030497;28;20147;-68
2021/03/23 01:20:23;;;;;;;344.33;104.23;;;;;;;2.46;61.18;99130.81;5038543;28;20111;-68
2021/03/23 01:22:48;;;;;;;341.48;135.32;;;;;;;2.43;61.64;99128.19;5033716;28;20104;-68
2021/03/23 01:25:14;;;;;;;345.50;103.90;;;;;;;2.38;61.87;99133.16;5038141;28;20351;-68
2021/03/23 01:27:40;;;;;;;334.40;106.28;;;;;;;2.44;61.91;99135.81;5037853;28;20453;-67
2021/03/23 01:30:08;;;;;;;328.73;153.30;;;;;;;2.39;62.21;99139.94;5038867;28;20040;-68
2021/03/23 01:32:34;;;;;;;329.70;104.65;;;;;;;2.34;62.27;99135.56;5035455;28;20083;-68
2021/03/23 01:34:59;;;;;;;326.77;99.50;;;;;;;2.32;62.79;99148.22;5035981;28;20379;-68
2021/03/23 01:37:25;;;;;;;333.77;104.57;;;;;;;2.30;62.63;99142.25;5033529;28;20037;-68
2021/03/23 01:39:50;;;;;;;310.67;99.80;;;;;;;2.31;62.86;99141.44;5035960;28;20088;-67
2021/03/23 01:42:17;;;;;;;345.93;102.67;;;;;;;2.28;63.93;99142.25;5033275;28;20033;-67
2021/03/23 01:44:45;;;;;;;346.50;102.20;;;;;;;2.23;64.28;99137.91;5034785;28;20088;-68
2021/03/23 01:47:12;;;;;;;337.70;101.47;;;;;;;2.22;64.71;99136.19;5037737;28;20075;-68
2021/03/23 01:49:42;;;;;;;355.17;104.18;;;;;;;2.28;64.85;99143.91;5039331;28;20040;-68
2021/03/23 01:52:14;;;;;;;304.88;104.38;;;;;;;2.35;64.48;99148.28;5038579;28;20064;-68
2021/03/23 01:54:48;;;;;;;341.50;102.00;;;;;;;2.35;64.89;99143.22;5035288;28;20315;-67
2021/03/23 01:57:14;;;;;;;350.83;106.73;;;;;;;2.27;64.75;99134.59;5036413;28;20448;-68
2021/03/23 01:59:45;;;;;;;351.77;104.68;;;;;;;2.25;65.31;99129.50;5034925;28;20339;-67
2021/03/23 02:02:11;;;;;;;331.98;102.82;;;;;;;2.38;65.16;99142.44;5034920;28;20068;-67
2021/03/23 02:04:37;;;;;;;350.75;105.10;;;;;;;2.30;65.24;99143.13;5032134;28;20044;-68
2021/03/23 02:07:03;;;;;;;341.73;105.10;;;;;;;2.37;65.35;99130.59;5035216;28;20037;-68
2021/03/23 02:09:32;;;;;;;318.85;152.70;;;;;;;2.41;65.31;99129.84;5037450;28;20120;-68
2021/03/23 02:12:03;;;;;;;308.27;136.20;;;;;;;2.38;65.80;99129.78;5034953;28;20025;-67
2021/03/23 02:14:32;;;;;;;341.53;99.73;;;;;;;2.39;65.64;99122.22;5034948;28;20641;-67
2021/03/23 02:17:26;;;;;;;334.87;100.60;;;;;;;2.48;65.72;99126.63;5034417;28;20597;-68
2021/03/23 02:19:57;;;;;;;335.10;105.75;;;;;;;2.45;66.00;99122.34;5035092;28;20252;-67
2021/03/23 02:22:32;;;;;;;303.02;99.35;;;;;;;2.49;65.74;99124.13;5035216;28;20029;-67
2021/03/23 02:24:58;;;;;;;358.70;106.73;;;;;;;2.49;65.74;99119.06;5036995;28;20437;-67
2021/03/23 02:27:26;;;;;;;335.53;102.43;;;;;;;2.56;65.75;99118.38;5031638;28;20029;-67
2021/03/23 02:29:53;;;;;;;344.77;107.20;;;;;;;2.56;65.79;99108.25;5035948;28;20172;-69
2021/03/23 02:32:19;;;;;;;328.93;122.77;;;;;;;2.57;65.81;99117.53;5030806;28;20417;-68
2021/03/23 02:34:45;;;;;;;337.40;107.27;;;;;;;2.55;65.84;99113.25;5036838;28;20288;-68
2021/03/23 02:37:11;;;;;;;307.47;100.43;;;;;;;2.58;65.64;99119.25;5033311;28;20274;-68
2021/03/23 02:39:37;;;;;;;331.23;100.53;;;;;;;2.61;66.04;99121.00;5034236;28;20274;-68
2021/03/23 02:42:04;;;;;;;317.03;100.00;;;;;;;2.67;65.69;99119.41;5038277;28;20029;-68
2021/03/23 02:44:37;;;;;;;362.57;105.00;;;;;;;2.71;65.42;99117.84;5034172;28;20511;-70
2021/03/23 02:47:03;;;;;;;292.90;125.57;;;;;;;2.66;65.26;99125.34;5031535;28;20632;-69
2021/03/23 02:49:29;;;;;;;335.83;101.97;;;;;;;2.68;65.57;99125.34;5033124;28;20292;-68
2021/03/23 02:51:54;;;;;;;308.27;102.10;;;;;;;2.67;65.64;99132.06;5037213;28;20445;-68
2021/03/23 02:54:19;;;;;;;347.50;110.93;;;;;;;2.67;65.69;99132.06;5032742;28;20252;-69
2021/03/23 02:56:45;;;;;;;347.73;105.67;;;;;;;2.71;65.67;99138.94;5034228;28;20056;-69
2021/03/23 02:59:10;;;;;;;347.50;103.80;;;;;;;2.70;65.74;99141.44;5032658;28;20026;-69
2021/03/23 03:01:36;;;;;;;327.37;105.10;;;;;;;2.79;65.24;99136.56;5033727;28;20355;-69
2021/03/23 03:04:06;;;;;;;289.47;116.60;;;;;;;2.80;65.05;99130.63;5034083;28;20128;-69
2021/03/23 03:06:32;;;;;;;298.70;126.50;;;;;;;2.75;65.21;99127.19;5034940;28;20294;-69
2021/03/23 03:08:57;;;;;;;318.53;124.27;;;;;;;2.79;65.42;99130.63;5035454;28;20037;-68
2021/03/23 03:11:23;;;;;;;320.43;99.53;;;;;;;2.82;65.39;99131.53;5035832;28;20209;-68
2021/03/23 03:13:48;;;;;;;350.13;107.40;;;;;;;2.76;65.62;99133.94;5033149;28;20029;-68
2021/03/23 03:16:14;;;;;;;351.80;105.00;;;;;;;2.84;65.46;99139.19;5035888;28;20510;-68
2021/03/23 03:18:39;;;;;;;351.83;103.27;;;;;;;2.78;65.52;99137.38;5036260;28;20026;-69
2021/03/23 03:21:05;;;;;;;331.00;100.50;;;;;;;2.82;65.91;99123.09;5035574;28;20040;-69
2021/03/23 03:23:30;;;;;;;331.03;103.47;;;;;;;2.82;65.69;99125.63;5032021;28;20390;-68
2021/03/23 03:25:56;;;;;;;346.33;107.10;;;;;;;2.80;65.52;99137.41;5033606;28;20025;-69
2021/03/23 03:28:22;;;;;;;314.23;112.20;;;;;;;2.76;65.74;99132.25;5033975;28;20037;-70
2021/03/23 03:30:48;;;;;;;325.35;100.95;;;;;;;2.80;65.86;99133.16;5033932;28;20030;-70
2021/03/23 03:33:17;;;;;;;340.70;108.23;;;;;;;2.83;65.86;99127.34;5033244;28;20418;-68
2021/03/23 03:35:44;;;;;;;326.85;103.43;;;;;;;2.82;65.90;99138.28;5032162;28;20025;-69
2021/03/23 03:38:11;;;;;;;332.03;113.43;;;;;;;2.78;66.46;99127.25;5032443;28;20927;-69
2021/03/23 03:40:44;;;;;;;341.67;102.30;;;;;;;2.84;66.31;99134.13;5033064;28;20269;-69
2021/03/23 03:43:11;;;;;;;340.30;109.05;;;;;;;2.79;66.52;99138.22;5037531;28;20382;-68
2021/03/23 03:45:36;;;;;;;346.58;105.78;;;;;;;2.75;66.26;99140.72;5029718;28;20029;-68
2021/03/23 03:48:02;;;;;;;344.10;107.17;;;;;;;2.80;66.48;99135.69;5036234;28;20044;-68
2021/03/23 03:50:29;;;;;;;312.55;170.70;;;;;;;2.84;66.28;99149.31;5034461;28;20030;-68
2021/03/23 03:52:56;;;;;;;336.40;105.43;;;;;;;2.82;66.33;99143.34;5034757;28;20033;-68
2021/03/23 03:55:28;;;;;;;348.20;112.50;;;;;;;2.85;66.79;99148.47;5030627;28;20033;-68
2021/03/23 03:57:54;;;;;;;333.37;103.53;;;;;;;2.82;66.66;99144.19;5036926;28;20296;-68
2021/03/23 04:00:22;;;;;;;338.97;118.40;;;;;;;2.88;66.69;99143.47;5028785;28;20468;-68
2021/03/23 04:02:48;;;;;;;337.13;109.53;;;;;;;2.81;66.81;99139.09;5025694;28;20038;-68
2021/03/23 04:05:23;;;;;;;356.67;108.70;;;;;;;2.87;67.05;99146.81;5028444;28;20029;-68
2021/03/23 04:07:48;;;;;;;294.15;117.85;;;;;;;2.81;67.18;99146.69;5034416;28;20460;-68
2021/03/23 04:10:15;;;;;;;343.70;108.40;;;;;;;2.78;67.81;99144.97;5032864;28;20059;-68
2021/03/23 04:12:40;;;;;;;316.52;104.07;;;;;;;2.81;67.46;99141.63;5031780;28;20044;-68
2021/03/23 04:15:07;;;;;;;349.67;108.37;;;;;;;2.81;67.61;99151.75;5030780;28;20033;-68
2021/03/23 04:17:32;;;;;;;350.13;112.77;;;;;;;2.75;67.94;99157.56;5032045;28;20025;-68
2021/03/23 04:19:57;;;;;;;349.93;109.77;;;;;;;2.75;67.63;99144.91;5031518;28;20509;-67
2021/03/23 04:22:23;;;;;;;330.27;118.60;;;;;;;2.80;67.65;99150.91;5031980;28;20025;-68
2021/03/23 04:24:48;;;;;;;365.57;110.33;;;;;;;2.84;67.82;99151.84;5033639;28;20065;-68
2021/03/23 04:27:13;;;;;;;356.67;120.10;;;;;;;2.85;67.19;99138.31;5032766;28;20048;-66
2021/03/23 04:29:39;;;;;;;350.83;111.03;;;;;;;2.85;67.25;99143.38;5029384;28;20025;-67
2021/03/23 04:32:05;;;;;;;359.57;106.17;;;;;;;2.88;67.59;99153.59;5032150;28;20040;-68
2021/03/23 04:34:30;;;;;;;339.83;103.73;;;;;;;2.88;66.67;99146.88;5031405;28;20049;-67
2021/03/23 04:36:56;;;;;;;342.60;105.47;;;;;;;2.93;66.84;99155.38;5034788;28;20045;-68
2021/03/23 04:39:21;;;;;;;353.40;108.07;;;;;;;2.92;66.58;99156.22;5034821;28;20398;-69
2021/03/23 04:41:46;;;;;;;376.03;218.27;;;;;;;3.01;66.74;99155.56;5029875;28;20044;-69
2021/03/23 04:44:12;;;;;;;356.97;105.40;;;;;;;3.03;66.47;99174.16;5034604;28;20049;-69
2021/03/23 04:46:37;;;;;;;369.87;108.00;;;;;;;2.99;66.51;99167.31;5028741;28;20418;-67
2021/03/23 04:49:02;;;;;;;383.23;114.90;;;;;;;2.96;67.24;99162.19;5035655;28;20029;-67
2021/03/23 04:51:31;;;;;;;364.77;110.67;;;;;;;3.00;66.70;99169.03;5029756;28;20048;-67
2021/03/23 04:53:59;;;;;;;383.20;116.17;;;;;;;3.02;66.46;99173.28;5034397;28;20029;-66
2021/03/23 04:56:31;;;;;;;361.45;107.22;;;;;;;2.91;66.98;99164.66;5029096;28;20398;-68
2021/03/23 04:58:56;;;;;;;362.17;108.70;;;;;;;3.02;66.87;99180.03;5034439;28;20025;-67
2021/03/23 05:01:22;;;;;;;353.93;108.37;;;;;;;2.96;67.20;99188.38;5035137;28;20120;-69
2021/03/23 05:03:55;;;;;;;379.57;114.47;;;;;;;3.06;67.01;99186.88;5033119;28;20252;-68
2021/03/23 05:06:22;;;;;;;361.13;108.20;;;;;;;3.00;66.93;99191.81;5030508;28;20083;-68
2021/03/23 05:08:47;;;;;;;351.33;131.43;;;;;;;2.97;67.27;99184.19;5032625;28;20358;-68
2021/03/23 05:11:15;;;;;;;349.27;115.97;;;;;;;2.99;67.39;99190.09;5029922;28;20264;-67
2021/03/23 05:13:41;;;;;;;359.53;115.90;;;;;;;3.01;67.01;99186.78;5033019;28;20033;-68
2021/03/23 05:16:07;;;;;;;363.00;108.00;;;;;;;2.97;67.41;99184.19;5034461;28;20272;-69
2021/03/23 05:18:33;;;;;;;351.20;102.20;;;;;;;2.95;67.15;99191.72;5029218;28;20288;-68
2021/03/23 05:20:58;;;;;;;351.20;185.43;;;;;;;3.03;67.29;99189.34;5034314;28;20470;-67
2021/03/23 05:23:23;;;;;;;352.07;129.23;;;;;;;3.06;67.29;99186.88;5028038;28;20037;-68
2021/03/23 05:25:50;;;;;;;351.13;107.60;;;;;;;3.10;66.69;99188.63;5031759;28;20025;-69
2021/03/23 05:28:16;;;;;;;361.43;107.80;;;;;;;3.05;66.79;99206.31;5029089;28;20041;-67
2021/03/23 05:30:42;;;;;;;376.00;114.43;;;;;;;3.10;66.71;99198.75;5034431;28;20295;-68
2021/03/23 05:33:09;;;;;;;383.07;115.90;;;;;;;3.18;66.38;99200.63;5027285;28;20033;-68
2021/03/23 05:35:34;;;;;;;373.57;110.77;;;;;;;3.11;66.23;99197.94;5032819;28;20653;-67
2021/03/23 05:38:00;;;;;;;375.33;110.30;;;;;;;3.10;66.16;99191.16;5029203;28;20298;-68
2021/03/23 05:40:30;;;;;;;396.77;116.33;;;;;;;3.17;66.44;99198.09;5033915;28;20486;-68
2021/03/23 05:43:01;;;;;;;381.13;110.17;;;;;;;3.25;66.43;99211.75;5030074;28;20136;-68
2021/03/23 05:45:39;;;;;;;365.23;118.23;;;;;;;3.30;65.96;99221.97;5033226;28;20299;-68
2021/03/23 05:48:28;;;;;;;362.87;109.53;;;;;;;3.40;65.53;99208.63;5031528;28;20858;-68
2021/03/23 05:51:21;;;;;;;362.50;114.27;;;;;;;3.38;66.21;99212.84;5032794;28;20281;-67
2021/03/23 05:53:53;;;;;;;316.80;111.87;;;;;;;3.31;66.09;99200.88;5032221;28;20359;-68
2021/03/23 05:56:20;;;;;;;348.92;108.18;;;;;;;3.37;66.35;99211.13;5028471;28;20286;-68
2021/03/23 05:58:51;;;;;;;428.42;152.10;;;;;;;3.45;65.81;99214.63;5031142;28;20466;-67
2021/03/23 06:01:27;;;;;;;384.10;116.57;;;;;;;3.50;65.77;99213.91;5030354;28;20057;-68
2021/03/23 06:04:17;;;;;;;371.77;118.67;;;;;;;3.58;65.60;99222.50;5033961;28;20667;-68
2021/03/23 06:06:57;;;;;;;359.83;109.57;;;;;;;3.61;65.11;99222.56;5036186;28;20276;-67
2021/03/23 06:09:29;;;;;;;386.00;129.30;;;;;;;3.63;65.41;99223.44;5034968;28;20296;-68
2021/03/23 06:12:03;;;;;;;405.67;133.97;;;;;;;3.63;65.24;99227.66;5031510;28;20276;-68
2021/03/23 06:14:48;;;;;;;395.52;125.32;;;;;;;3.77;64.63;99223.69;5038560;28;20650;-66
2021/03/23 06:17:42;;;;;;;376.20;113.27;;;;;;;3.86;65.13;99228.06;5040912;28;20025;-67
2021/03/23 06:20:45;;;;;;;361.50;108.57;;;;;;;3.99;64.44;99229.97;5035352;28;20599;-67
2021/03/23 06:23:29;;;;;;;323.70;124.57;;;;;;;4.03;64.16;99234.28;5038513;28;20540;-68
2021/03/23 06:26:04;;;;;;;367.77;114.20;;;;;;;3.93;64.20;99235.81;5037608;28;20295;-67
2021/03/23 06:28:41;;;;;;;341.77;117.68;;;;;;;3.92;64.61;99239.16;5035235;28;20347;-68
2021/03/23 06:31:44;;;;;;;368.33;109.70;;;;;;;3.95;64.62;99233.28;5037006;28;20068;-67
2021/03/23 06:34:26;;;;;;;345.90;121.43;;;;;;;3.99;64.89;99242.66;5036205;28;20904;-67
2021/03/23 06:36:51;;;;;;;376.93;216.10;;;;;;;3.99;64.44;99242.66;5035379;28;20273;-67
2021/03/23 06:39:18;;;;;;;385.77;119.73;;;;;;;4.00;64.51;99250.28;5033482;28;20278;-68
2021/03/23 06:41:56;;;;;;;336.67;133.30;;;;;;;4.09;64.44;99242.84;5033172;28;20034;-67
2021/03/23 06:44:34;;;;;;;386.03;118.20;;;;;;;4.14;63.82;99248.84;5035768;28;20064;-69
2021/03/23 06:47:00;;;;;;;384.87;133.10;;;;;;;4.13;63.81;99253.88;5033954;28;20740;-68
2021/03/23 06:49:33;;;;;;;392.63;122.17;;;;;;;4.23;63.66;99249.81;5032534;28;20300;-69
2021/03/23 06:52:17;;;;;;;321.90;115.63;;;;;;;4.23;64.16;99250.69;5032103;28;20240;-66
2021/03/23 06:54:43;;;;;;;381.97;118.20;;;;;;;4.15;63.92;99242.09;5051569;28;20025;-68
2021/03/23 06:57:12;;;;;;;389.67;124.40;;;;;;;4.41;63.51;99253.50;5031022;28;20264;-69
2021/03/23 06:59:59;;;;;;;382.97;118.77;;;;;;;4.47;62.92;99255.28;5034305;28;20059;-66
2021/03/23 07:02:36;;;;;;;389.57;125.70;;;;;;;4.43;62.78;99253.53;5034876;28;20303;-65
2021/03/23 07:05:26;;;;;;;398.67;142.80;;;;;;;4.56;62.74;99251.19;5037265;28;20268;-67
2021/03/23 07:08:21;;;;;;;383.67;129.77;;;;;;;4.60;62.50;99252.09;5049496;28;20040;-68
2021/03/23 07:10:52;;;;;;;352.70;112.27;;;;;;;4.68;62.64;99231.88;5035918;28;20280;-69
2021/03/23 07:13:30;;;;;;;387.97;123.47;;;;;;;4.53;62.17;99256.25;5037168;28;20264;-69
2021/03/23 07:16:11;;;;;;;351.13;108.90;;;;;;;4.60;62.64;99241.94;5032997;28;20605;-68
2021/03/23 07:18:39;;;;;;;311.40;117.50;;;;;;;4.63;61.90;99252.13;5032234;28;20278;-67
2021/03/23 07:21:12;;;;;;;366.70;116.40;;;;;;;4.76;61.57;99232.84;5031462;28;20029;-68
2021/03/23 07:23:40;;;;;;;374.03;125.17;;;;;;;4.94;62.26;99233.94;5032746;28;20350;-69
2021/03/23 07:26:28;;;;;;;420.87;145.87;;;;;;;5.00;61.54;99243.34;5035456;28;20033;-68
2021/03/23 07:29:22;;;;;;;403.33;133.07;;;;;;;5.17;61.38;99256.25;5030072;28;20285;-66
2021/03/23 07:32:01;;;;;;;396.60;129.87;;;;;;;5.06;60.50;99243.41;5033901;28;20434;-69
2021/03/23 07:34:53;;;;;;;405.07;137.43;;;;;;;4.96;60.85;99239.91;5028852;28;20283;-70
2021/03/23 07:37:25;;;;;;;400.43;136.73;;;;;;;4.90;61.08;99237.28;5033231;28;20272;-67
2021/03/23 07:40:23;;;;;;;398.03;128.43;;;;;;;4.85;61.07;99249.06;5035093;28;20736;-69
2021/03/23 07:43:16;;;;;;;424.73;154.37;;;;;;;4.85;61.20;99243.97;5026992;28;20308;-69
2021/03/23 07:46:10;;;;;;;252.37;121.00;;;;;;;4.84;61.28;99246.50;5030221;28;20072;-69
2021/03/23 07:48:49;;;;;;;397.63;129.87;;;;;;;4.97;61.52;99258.53;5025653;28;20283;-69
2021/03/23 07:51:43;;;;;;;404.97;136.10;;;;;;;5.09;60.18;99240.94;5034697;28;20047;-70
2021/03/23 07:54:26;;;;;;;395.73;142.77;;;;;;;5.04;60.25;99237.47;5031586;28;20115;-70
2021/03/23 07:57:14;;;;;;;405.10;132.00;;;;;;;5.25;59.93;99249.59;5029885;28;20034;-69
2021/03/23 08:00:01;;;;;;;399.20;133.90;;;;;;;5.51;59.53;99245.66;5032377;28;20302;-69
2021/03/23 08:02:45;;;;;;;402.63;131.77;;;;;;;5.71;58.46;99240.75;5031122;28;20741;-69
2021/03/23 08:05:39;;;;;;;395.43;143.17;;;;;;;5.47;58.53;99229.47;5034088;28;20068;-70
2021/03/23 08:08:16;;;;;;;393.47;136.20;;;;;;;5.51;58.90;99248.19;5035512;28;20032;-69
2021/03/23 08:11:06;;;;;;;398.40;135.10;;;;;;;5.73;57.92;99244.19;5029299;28;20167;-70
2021/03/23 08:13:57;;;;;;;392.17;147.87;;;;;;;5.97;57.58;99250.41;5028719;28;20278;-69
2021/03/23 08:16:39;;;;;;;424.07;151.27;;;;;;;6.13;57.57;99248.84;5027676;28;20025;-69
2021/03/23 08:19:20;;;;;;;408.80;145.23;;;;;;;6.31;57.23;99253.22;5035916;28;20312;-70
2021/03/23 08:22:04;;;;;;;402.33;155.27;;;;;;;6.27;56.28;99247.25;5034674;28;20112;-69
2021/03/23 08:24:36;;;;;;;422.27;156.47;;;;;;;5.92;56.96;99264.75;5033020;28;20040;-69
2021/03/23 08:27:07;;;;;;;135.70;107.57;;;;;;;5.94;56.42;99259.69;5033730;28;20022;-69
2021/03/23 08:29:32;;;;;;;407.47;140.43;;;;;;;5.99;56.52;99278.38;5032772;28;20061;-69
2021/03/23 08:32:12;;;;;;;413.93;146.63;;;;;;;5.95;56.82;99269.00;5034486;28;20627;-68
2021/03/23 08:34:56;;;;;;;395.77;152.70;;;;;;;5.81;56.84;99258.66;5030968;28;20212;-70
2021/03/23 08:37:46;;;;;;;400.97;152.30;;;;;;;5.98;57.07;99256.34;5033727;28;20038;-69
2021/03/23 08:40:29;;;;;;;424.97;167.47;;;;;;;5.87;56.71;99263.00;5047412;28;20040;-68
2021/03/23 08:42:56;;;;;;;428.40;160.80;;;;;;;5.81;57.07;99255.28;5026739;28;20045;-70
2021/03/23 08:45:36;;;;;;;379.97;119.70;;;;;;;6.05;56.68;99263.19;5036680;28;20038;-70
2021/03/23 08:48:21;;;;;;;395.30;140.23;;;;;;;6.01;56.88;99251.28;5029810;28;20695;-68
2021/03/23 08:50:47;;;;;;;392.47;141.30;;;;;;;5.86;56.03;99257.06;5032194;28;20029;-70
2021/03/23 08:53:36;;;;;;;387.53;131.40;;;;;;;5.97;56.32;99245.31;5028383;28;20037;-70
2021/03/23 08:56:04;;;;;;;412.10;146.93;;;;;;;5.97;56.27;99255.50;5035101;28;20267;-69
2021/03/23 08:59:00;;;;;;;412.47;146.40;;;;;;;6.04;56.25;99248.75;5027276;28;20022;-71
2021/03/23 09:01:36;;;;;;;401.03;138.10;;;;;;;6.13;56.09;99241.19;5030205;28;20045;-67
2021/03/23 09:04:04;;;;;;;417.90;148.57;;;;;;;6.16;56.00;99263.25;5033287;28;20280;-67
2021/03/23 09:06:50;;;;;;;410.33;147.13;;;;;;;6.19;55.51;99263.31;5028198;28;20022;-69
2021/03/23 09:09:31;;;;;;;398.67;130.38;;;;;;;6.12;55.55;99259.84;5032818;28;20037;-68
2021/03/23 09:12:18;;;;;;;361.07;117.67;;;;;;;6.16;55.41;99256.47;5029667;28;20133;-66
2021/03/23 09:15:16;;;;;;;395.30;133.87;;;;;;;6.30;54.58;99249.81;5033867;28;20356;-67
2021/03/23 09:18:12;;;;;;;381.63;145.90;;;;;;;6.41;54.44;99240.56;5030709;28;20087;-69
2021/03/23 09:20:38;;;;;;;;;;;;;;;6.41;54.80;99247.34;5028647;28;20022;-69
2021/03/23 09:23:15;;;;;;;331.80;154.87;;;;;;;6.39;55.19;99254.13;5034278;28;19917;-70
2021/03/23 09:25:55;;;;;;;395.37;134.37;;;;;;;6.45;54.77;99253.34;5029949;28;20108;-70
2021/03/23 09:28:45;;;;;;;402.87;135.73;;;;;;;6.46;55.13;99248.22;5028985;28;20292;-70
2021/03/23 09:31:21;;;;;;;332.23;119.27;;;;;;;6.30;54.98;99238.78;5027858;28;20057;-69
2021/03/23 09:33:50;;;;;;;390.47;144.50;;;;;;;6.37;55.41;99241.38;5031215;28;20283;-68
2021/03/23 09:36:24;;;;;;;314.87;184.37;;;;;;;6.56;54.94;99234.72;5029862;28;20375;-67
2021/03/23 09:38:52;;;;;;;343.93;122.57;;;;;;;6.61;54.38;99244.97;5030090;28;20029;-68
2021/03/23 09:41:21;;;;;;;368.00;162.40;;;;;;;6.73;54.06;99222.94;5034025;28;20342;-68
2021/03/23 09:43:48;;;;;;;370.30;129.83;;;;;;;6.52;53.76;99217.72;5039056;28;20296;-67
2021/03/23 09:46:35;;;;;;;407.27;142.47;;;;;;;6.80;53.43;99234.03;5037955;28;20268;-67
2021/03/23 09:49:22;;;;;;;390.00;165.17;;;;;;;6.86;53.22;99224.72;5031994;28;20042;-68
2021/03/23 09:51:50;;;;;;;410.70;148.40;;;;;;;7.14;52.91;99222.28;5036362;28;20404;-68
2021/03/23 09:54:20;;;;;;;415.17;152.10;;;;;;;7.40;52.18;99224.94;5032426;28;20075;-68
2021/03/23 09:56:48;;;;;;;406.10;147.37;;;;;;;7.67;51.93;99220.78;5033251;28;20113;-67
2021/03/23 09:59:16;;;;;;;404.57;148.67;;;;;;;7.99;50.51;99215.69;5036861;28;20280;-68
2021/03/23 10:01:53;;;;;;;410.47;154.47;;;;;;;7.98;50.13;99225.91;5030910;28;20311;-68
2021/03/23 10:04:32;;;;;;;405.80;155.17;;;;;;;7.76;50.75;99207.19;5031533;28;20267;-68
2021/03/23 10:06:58;;;;;;;386.80;160.80;;;;;;;7.88;51.21;99206.34;5031800;28;20268;-67
2021/03/23 10:09:27;;;;;;;401.73;145.33;;;;;;;8.11;50.32;99212.28;5038501;28;20279;-67
2021/03/23 10:11:52;;;;;;;366.57;214.90;;;;;;;8.20;50.63;99205.47;5037148;28;20022;-68
2021/03/23 10:14:34;;;;;;;397.30;148.47;;;;;;;8.17;50.78;99214.84;5036906;28;20264;-67
2021/03/23 10:17:07;;;;;;;406.73;168.03;;;;;;;8.44;50.81;99201.25;5036893;28;20289;-67
2021/03/23 10:19:42;;;;;;;407.13;167.90;;;;;;;8.54;50.02;99210.59;5032793;28;20680;-68
2021/03/23 10:22:29;;;;;;;419.13;179.73;;;;;;;8.35;49.64;99196.16;5034824;28;20773;-67
2021/03/23 10:24:59;;;;;;;369.23;159.17;;;;;;;8.55;49.87;99192.72;5032683;28;20030;-67
2021/03/23 10:27:36;;;;;;;389.23;183.73;;;;;;;8.24;50.09;99196.13;5037273;28;20279;-68
2021/03/23 10:30:15;;;;;;;405.50;160.93;;;;;;;8.45;50.28;99193.56;5034208;28;20366;-68
2021/03/23 10:32:46;;;;;;;420.47;181.03;;;;;;;8.15;49.74;99191.00;5033068;28;20318;-68
2021/03/23 10:35:52;;;;;;;415.43;169.27;;;;;;;7.99;49.13;99181.66;5030649;28;20310;-69
2021/03/23 10:38:30;;;;;;;312.17;133.65;;;;;;;7.86;49.98;99179.94;4996156;28;20764;-67
2021/03/23 10:40:58;;;;;;;412.23;154.37;;;;;;;7.89;50.61;99179.97;4996904;28;20277;-68
2021/03/23 10:43:36;;;;;;;410.40;160.90;;;;;;;8.46;50.00;99182.50;4996884;28;20392;-67
2021/03/23 10:46:05;;;;;;;409.27;163.27;;;;;;;8.78;50.19;99172.22;4996597;28;20056;-67
2021/03/23 10:48:38;;;;;;;405.43;165.07;;;;;;;8.56;49.99;99181.66;4995971;28;20281;-66
2021/03/23 10:51:11;;;;;;;411.23;168.37;;;;;;;8.49;49.71;99181.63;4996065;28;20405;-67
2021/03/23 10:53:36;;;;;;;420.53;188.53;;;;;;;8.50;50.26;99181.63;4997289;28;20295;-67
2021/03/23 10:56:02;;;;;;;428.47;189.43;;;;;;;8.58;48.08;99186.72;4995833;28;20100;-67
2021/03/23 10:58:30;;;;;;;429.73;196.13;;;;;;;8.27;49.99;99186.75;4995541;28;20319;-67
2021/03/23 11:01:20;;;;;;;413.07;178.10;;;;;;;7.97;50.28;99196.13;4997291;28;20030;-67
2021/03/23 11:03:47;;;;;;;404.60;182.57;;;;;;;7.86;50.90;99190.16;4996413;28;20096;-68
2021/03/23 11:06:35;;;;;;;399.50;153.63;;;;;;;7.68;51.25;99211.41;4995689;28;20058;-68
2021/03/23 11:09:02;;;;;;;401.70;164.07;;;;;;;7.79;51.19;99184.19;5011973;28;20334;-66
2021/03/23 11:11:30;;;;;;;408.00;172.50;;;;;;;7.76;51.31;99179.09;5029751;28;20036;-67
2021/03/23 11:13:55;;;;;;;416.27;172.13;;;;;;;7.79;52.29;99187.59;5028031;28;20108;-68
2021/03/23 11:16:25;;;;;;;415.43;166.13;;;;;;;8.01;52.13;99178.25;5031424;28;20363;-68
2021/03/23 11:18:51;;;;;;;424.73;173.97;;;;;;;7.84;52.31;99169.75;5046533;28;20445;-66
2021/03/23 11:21:19;;;;;;;419.20;178.80;;;;;;;7.84;52.55;99172.31;5031061;28;20287;-67
2021/03/23 11:23:48;;;;;;;425.30;175.27;;;;;;;7.78;52.27;99183.34;5029760;28;20035;-65
2021/03/23 11:26:20;;;;;;;430.30;175.37;;;;;;;8.20;51.13;99182.50;5029167;28;20040;-66
2021/03/23 11:28:47;;;;;;;424.13;168.27;;;;;;;7.84;51.51;99177.41;5033455;28;20053;-68
2021/03/23 11:31:16;;;;;;;398.90;148.80;;;;;;;8.14;51.33;99179.97;5029379;28;20033;-66
2021/03/23 11:33:42;;;;;;;416.60;159.83;;;;;;;7.98;52.53;99185.03;5029759;28;20272;-66